Time;durP1;ratioP1;P1;durP2;ratioP2;P2;SDS_P1;SDS_P2;PMS_P1;PMS_P2;Temp;Humidity;BMP_temperature;BMP_pressure;BME280_temperature;BME280_humidity;BME280_pressure;Samples;Min_cycle;Max_cycle;Signal;HPM_P1;HPM_P2
2023/05/15 00:00:11;;;;;;;13.82;11.15;;;;;;;;;;2041674;29;20319;-88
2023/05/15 00:01:12;;;;;;;16.10;12.15;;;;;;;;;;2031360;29;20044;-89
2023/05/15 00:02:13;;;;;;;18.15;12.88;;;;;;;;;;2036849;29;20543;-89
2023/05/15 00:03:13;;;;;;;18.17;12.38;;;;;;;;;;2024218;29;20059;-89
2023/05/15 00:04:13;;;;;;;15.20;12.05;;;;;;;;;;2031224;29;20038;-89
2023/05/15 00:05:14;;;;;;;13.65;11.25;;;;;;;;;;2039683;29;20094;-88
2023/05/15 00:06:15;;;;;;;16.45;13.20;;;;;;;;;;2031252;29;20115;-88
2023/05/15 00:07:15;;;;;;;14.98;12.43;;;;;;;;;;2023296;29;20068;-88
2023/05/15 00:08:18;;;;;;;15.52;12.20;;;;;;;;;;2023431;29;20024;-88
2023/05/15 00:09:18;;;;;;;14.48;11.63;;;;;;;;;;2031699;29;20036;-88
2023/05/15 00:10:19;;;;;;;13.85;10.82;;;;;;;;;;2039845;29;20507;-89
2023/05/15 00:11:22;;;;;;;15.60;12.43;;;;;;;;;;2039716;29;20400;-88
2023/05/15 00:12:22;;;;;;;15.80;12.55;;;;;;;;;;2039536;29;20326;-89
2023/05/15 00:13:23;;;;;;;13.85;12.07;;;;;;;;;;2031089;29;20112;-88
2023/05/15 00:14:23;;;;;;;16.50;13.15;;;;;;;;;;2031112;29;20034;-89
2023/05/15 00:15:24;;;;;;;16.98;12.77;;;;;;;;;;1691649;29;10241489;-89
2023/05/15 00:16:24;;;;;;;15.05;12.20;;;;;;;;;;2035924;29;20039;-87
2023/05/15 00:17:25;;;;;;;16.98;12.90;;;;;;;;;;2023633;29;20032;-88
2023/05/15 00:18:26;;;;;;;16.48;12.05;;;;;;;;;;2031192;29;20510;-88
2023/05/15 00:19:26;;;;;;;17.23;12.68;;;;;;;;;;2031221;29;20028;-89
2023/05/15 00:20:26;;;;;;;18.23;13.50;;;;;;;;;;2023424;29;20434;-89
2023/05/15 00:21:27;;;;;;;17.42;12.38;;;;;;;;;;2023409;29;20029;-89
2023/05/15 00:22:27;;;;;;;15.43;12.13;;;;;;;;;;2023252;29;20032;-89
2023/05/15 00:23:28;;;;;;;15.13;12.35;;;;;;;;;;2031285;29;20029;-88
2023/05/15 00:24:28;;;;;;;17.95;12.05;;;;;;;;;;2030958;29;20503;-88
2023/05/15 00:25:29;;;;;;;15.93;12.60;;;;;;;;;;2023182;29;20029;-89
2023/05/15 00:26:29;;;;;;;15.77;12.63;;;;;;;;;;2022952;29;20032;-89
2023/05/15 00:27:30;;;;;;;19.95;13.50;;;;;;;;;;2031074;29;20028;-89
2023/05/15 00:28:30;;;;;;;18.50;12.75;;;;;;;;;;2030952;29;20024;-88
2023/05/15 00:29:31;;;;;;;15.60;12.30;;;;;;;;;;2030921;29;20024;-88
2023/05/15 00:30:31;;;;;;;15.95;11.55;;;;;;;;;;2031125;29;20067;-89
2023/05/15 00:31:32;;;;;;;16.48;12.30;;;;;;;;;;2039434;29;20031;-89
2023/05/15 00:32:32;;;;;;;17.80;12.70;;;;;;;;;;2039449;29;20027;-89
2023/05/15 00:33:33;;;;;;;17.00;13.25;;;;;;;;;;2039291;29;20067;-89
2023/05/15 00:34:33;;;;;;;17.70;12.27;;;;;;;;;;1683268;29;10260758;-89
2023/05/15 00:35:33;;;;;;;16.35;12.63;;;;;;;;;;2023022;29;20112;-89
2023/05/15 00:36:34;;;;;;;18.67;13.07;;;;;;;;;;2023192;29;20057;-89
2023/05/15 00:37:34;;;;;;;18.63;13.02;;;;;;;;;;2030816;29;20148;-88
2023/05/15 00:38:35;;;;;;;17.60;13.65;;;;;;;;;;2030942;29;20503;-89
2023/05/15 00:39:35;;;;;;;18.60;12.60;;;;;;;;;;2031066;29;20444;-89
2023/05/15 00:40:37;;;;;;;18.67;12.90;;;;;;;;;;2030973;29;20123;-89
2023/05/15 00:41:39;;;;;;;17.40;12.82;;;;;;;;;;2031607;29;20054;-88
2023/05/15 00:42:40;;;;;;;17.17;12.48;;;;;;;;;;2031721;29;20059;-89
2023/05/15 00:43:42;;;;;;;18.45;13.32;;;;;;;;;;2031387;29;20017;-89
2023/05/15 00:44:44;;;;;;;17.27;12.80;;;;;;;;;;2030828;29;20087;-89
2023/05/15 00:45:45;;;;;;;19.13;13.80;;;;;;;;;;2030984;29;20028;-89
2023/05/15 00:46:45;;;;;;;17.55;12.95;;;;;;;;;;2031052;29;20020;-89
2023/05/15 00:47:46;;;;;;;16.67;12.70;;;;;;;;;;2023124;29;20024;-89
2023/05/15 00:48:49;;;;;;;17.40;11.48;;;;;;;;;;2030830;29;20024;-88
2023/05/15 00:49:50;;;;;;;17.48;12.50;;;;;;;;;;2039601;29;20023;-90
2023/05/15 00:50:51;;;;;;;17.58;13.48;;;;;;;;;;2039460;29;20396;-89
2023/05/15 00:51:52;;;;;;;18.63;13.40;;;;;;;;;;2030919;29;20070;-88
2023/05/15 00:52:54;;;;;;;18.25;13.57;;;;;;;;;;2030616;29;20414;-89
2023/05/15 00:53:55;;;;;;;20.42;14.52;;;;;;;;;;2030902;29;20035;-89
2023/05/15 00:54:55;;;;;;;17.17;13.05;;;;;;;;;;2030828;29;20103;-89
2023/05/15 00:55:58;;;;;;;15.82;12.00;;;;;;;;;;2030982;29;20107;-89
2023/05/15 00:57:00;;;;;;;17.77;13.70;;;;;;;;;;2031219;29;20103;-91
2023/05/15 00:58:02;;;;;;;20.67;13.63;;;;;;;;;;2030691;29;20084;-89
2023/05/15 00:59:03;;;;;;;17.15;12.82;;;;;;;;;;2030968;29;20025;-89
2023/05/15 01:00:09;;;;;;;17.00;12.43;;;;;;;;;;2031069;29;20039;-89
2023/05/15 01:01:10;;;;;;;16.85;12.80;;;;;;;;;;2023411;29;20517;-88
2023/05/15 01:02:12;;;;;;;17.15;12.38;;;;;;;;;;2030897;29;20034;-87
2023/05/15 01:03:12;;;;;;;17.48;13.13;;;;;;;;;;2039327;29;20403;-88
2023/05/15 01:04:13;;;;;;;17.85;13.00;;;;;;;;;;2039534;29;20106;-88
2023/05/15 01:05:13;;;;;;;16.25;12.52;;;;;;;;;;2039444;29;20039;-87
2023/05/15 01:06:13;;;;;;;17.88;12.65;;;;;;;;;;2039414;29;20117;-89
2023/05/15 01:07:14;;;;;;;16.85;13.38;;;;;;;;;;2040679;29;20129;-89
2023/05/15 01:08:25;;;;;;;15.50;12.48;;;;;;;;;;2042743;29;20031;-87
2023/05/15 01:09:31;;;;;;;14.75;12.35;;;;;;;;;;2041643;29;20375;-89
2023/05/15 01:10:34;;;;;;;13.96;11.60;;;;;;;;;;1679708;29;10389236;-89
2023/05/15 01:11:37;;;;;;;17.42;13.93;;;;;;;;;;2023643;29;20363;-89
2023/05/15 01:12:40;;;;;;;14.73;12.32;;;;;;;;;;2031349;29;20024;-89
2023/05/15 01:13:40;;;;;;;15.70;12.90;;;;;;;;;;2030841;29;20412;-88
2023/05/15 01:14:41;;;;;;;17.98;12.77;;;;;;;;;;2031122;29;20115;-88
2023/05/15 01:15:42;;;;;;;17.10;12.77;;;;;;;;;;2030982;29;20521;-88
2023/05/15 01:16:42;;;;;;;17.88;13.52;;;;;;;;;;2030915;29;20126;-88
2023/05/15 01:17:45;;;;;;;16.40;13.20;;;;;;;;;;2030863;29;20026;-87
2023/05/15 01:18:54;;;;;;;18.33;13.30;;;;;;;;;;1968505;29;10252026;-88
2023/05/15 01:19:57;;;;;;;14.82;12.52;;;;;;;;;;2039704;29;20245;-89
2023/05/15 01:21:00;;;;;;;16.20;12.50;;;;;;;;;;2030920;29;20453;-88
2023/05/15 01:22:27;;;;;;;14.43;12.10;;;;;;;;;;2031191;29;20509;-88
2023/05/15 01:23:31;;;;;;;16.20;11.88;;;;;;;;;;2007157;29;20522;-88
2023/05/15 01:24:58;;;;;;;16.23;12.55;;;;;;;;;;2034406;29;20051;-89
2023/05/15 01:26:26;;;;;;;16.13;11.90;;;;;;;;;;2031493;29;20025;-89
2023/05/15 01:27:30;;;;;;;19.15;13.27;;;;;;;;;;2028117;29;20476;-88
2023/05/15 01:28:35;;;;;;;15.55;12.85;;;;;;;;;;2032831;29;20549;-89
2023/05/15 01:29:44;;;;;;;15.13;12.05;;;;;;;;;;2032239;29;20119;-89
2023/05/15 01:30:47;;;;;;;16.05;12.25;;;;;;;;;;2033527;29;20092;-89
2023/05/15 01:31:53;;;;;;;13.63;11.35;;;;;;;;;;2040838;29;20020;-88
2023/05/15 01:33:02;;;;;;;16.10;12.63;;;;;;;;;;2040684;29;20523;-88
2023/05/15 01:34:07;;;;;;;14.20;11.82;;;;;;;;;;2032414;29;20055;-89
2023/05/15 01:35:17;;;;;;;13.65;10.98;;;;;;;;;;2024848;29;20768;-88
2023/05/15 01:36:32;;;;;;;15.40;12.38;;;;;;;;;;2033658;29;20043;-89
2023/05/15 01:37:35;;;;;;;16.10;12.15;;;;;;;;;;2040765;29;20111;-88
2023/05/15 01:38:39;;;;;;;15.07;11.75;;;;;;;;;;2032197;29;20100;-88
2023/05/15 01:39:43;;;;;;;17.50;11.98;;;;;;;;;;2032398;29;20027;-88
2023/05/15 01:40:46;;;;;;;14.52;12.05;;;;;;;;;;2040881;29;20031;-88
2023/05/15 01:41:52;;;;;;;15.77;12.93;;;;;;;;;;2040683;29;20028;-88
2023/05/15 01:43:04;;;;;;;14.70;12.60;;;;;;;;;;2040613;29;20463;-88
2023/05/15 01:44:15;;;;;;;13.93;11.50;;;;;;;;;;2040471;29;20088;-88
2023/05/15 01:45:17;;;;;;;16.58;13.02;;;;;;;;;;2032031;29;20484;-87
2023/05/15 01:46:22;;;;;;;16.92;12.10;;;;;;;;;;2032301;29;20060;-88
2023/05/15 01:47:30;;;;;;;15.98;12.10;;;;;;;;;;2032186;29;20024;-88
2023/05/15 01:48:32;;;;;;;14.50;12.27;;;;;;;;;;2025280;29;20032;-88
2023/05/15 01:49:34;;;;;;;15.55;12.90;;;;;;;;;;2024386;29;20123;-88
2023/05/15 01:50:38;;;;;;;15.57;12.77;;;;;;;;;;2032296;29;20031;-88
2023/05/15 01:51:40;;;;;;;15.00;12.20;;;;;;;;;;2040559;29;20055;-88
2023/05/15 01:52:46;;;;;;;17.30;12.38;;;;;;;;;;2032003;29;20032;-86
2023/05/15 01:53:49;;;;;;;15.75;12.88;;;;;;;;;;1673174;29;10413561;-86
2023/05/15 01:54:50;;;;;;;14.93;12.75;;;;;;;;;;2024550;29;20517;-88
2023/05/15 01:55:52;;;;;;;15.63;11.80;;;;;;;;;;2024224;29;20420;-89
2023/05/15 01:56:55;;;;;;;15.40;12.43;;;;;;;;;;2032108;29;20032;-90
2023/05/15 01:58:00;;;;;;;15.48;11.95;;;;;;;;;;2040798;29;20107;-87
2023/05/15 01:59:03;;;;;;;17.42;12.05;;;;;;;;;;2041129;29;20043;-88
2023/05/15 02:00:04;;;;;;;17.42;12.85;;;;;;;;;;2036478;29;20067;-87
2023/05/15 02:01:05;;;;;;;16.65;12.52;;;;;;;;;;2036526;29;20138;-88
2023/05/15 02:02:06;;;;;;;15.27;12.05;;;;;;;;;;2032139;29;20054;-88
2023/05/15 02:03:07;;;;;;;14.30;11.95;;;;;;;;;;2024324;29;20032;-88
2023/05/15 02:04:09;;;;;;;16.45;12.80;;;;;;;;;;2032240;29;20400;-88
2023/05/15 02:05:11;;;;;;;18.30;12.90;;;;;;;;;;2032559;29;20028;-87
2023/05/15 02:06:12;;;;;;;14.45;12.05;;;;;;;;;;2040839;29;20027;-87
2023/05/15 02:07:14;;;;;;;14.48;12.10;;;;;;;;;;2032368;29;20193;-88
2023/05/15 02:08:15;;;;;;;14.80;12.18;;;;;;;;;;2033574;29;20120;-88
2023/05/15 02:09:16;;;;;;;18.35;12.93;;;;;;;;;;2042686;29;20028;-89
2023/05/15 02:10:17;;;;;;;18.35;13.60;;;;;;;;;;2042317;29;20036;-88
2023/05/15 02:11:18;;;;;;;14.88;12.80;;;;;;;;;;2041134;29;20046;-88
2023/05/15 02:12:19;;;;;;;15.63;12.50;;;;;;;;;;2040301;29;20099;-88
2023/05/15 02:13:20;;;;;;;16.77;12.75;;;;;;;;;;2029678;29;20132;-88
2023/05/15 02:14:22;;;;;;;16.45;12.90;;;;;;;;;;2024840;29;20039;-88
2023/05/15 02:15:23;;;;;;;18.55;14.15;;;;;;;;;;2032017;29;20473;-88
2023/05/15 02:16:24;;;;;;;17.20;13.52;;;;;;;;;;2040804;29;20642;-89
2023/05/15 02:17:27;;;;;;;16.73;14.00;;;;;;;;;;2031903;29;20150;-88
2023/05/15 02:18:27;;;;;;;14.88;12.98;;;;;;;;;;2032234;29;20483;-88
2023/05/15 02:19:28;;;;;;;17.98;13.35;;;;;;;;;;2040464;29;20087;-88
2023/05/15 02:20:28;;;;;;;16.50;12.65;;;;;;;;;;2040424;29;20411;-89
2023/05/15 02:21:29;;;;;;;15.73;12.90;;;;;;;;;;2031774;29;20439;-89
2023/05/15 02:22:29;;;;;;;19.83;13.43;;;;;;;;;;2031934;29;20040;-88
2023/05/15 02:23:30;;;;;;;18.80;13.32;;;;;;;;;;2031751;29;20027;-88
2023/05/15 02:24:30;;;;;;;16.67;12.77;;;;;;;;;;2031699;29;20158;-89
2023/05/15 02:25:41;;;;;;;;;;;;;;;;;;2024504;29;20036;-88
2023/05/15 02:27:01;;;;;;;20.17;12.98;;;;;;;;;;2033215;29;20237;-88
2023/05/15 02:28:05;;;;;;;18.25;12.85;;;;;;;;;;2045322;29;20080;-88
2023/05/15 02:29:14;;;;;;;15.55;12.65;;;;;;;;;;2042309;29;20060;-89
2023/05/15 02:30:42;;;;;;;15.82;12.57;;;;;;;;;;2034509;29;20032;-89
2023/05/15 02:31:51;;;;;;;18.52;13.23;;;;;;;;;;2039662;29;20031;-88
2023/05/15 02:33:13;;;;;;;17.55;13.05;;;;;;;;;;2031790;29;20036;-88
2023/05/15 02:34:31;;;;;;;18.05;12.60;;;;;;;;;;2035432;29;20106;-88
2023/05/15 02:36:01;;;;;;;14.82;12.32;;;;;;;;;;1846832;29;10248722;-88
2023/05/15 02:37:06;;;;;;;17.95;13.02;;;;;;;;;;2040171;29;20288;-88
2023/05/15 02:38:13;;;;;;;17.30;13.23;;;;;;;;;;2031655;29;20043;-89
2023/05/15 02:39:15;;;;;;;14.25;12.30;;;;;;;;;;2024804;29;20036;-89
2023/05/15 02:40:18;;;;;;;17.52;12.88;;;;;;;;;;2024114;29;20029;-89
2023/05/15 02:41:20;;;;;;;16.77;13.07;;;;;;;;;;2031970;29;20109;-89
2023/05/15 02:42:22;;;;;;;16.00;12.82;;;;;;;;;;2031613;29;20152;-89
2023/05/15 02:43:25;;;;;;;13.77;11.85;;;;;;;;;;2031887;29;20107;-89
2023/05/15 02:44:26;;;;;;;16.90;13.05;;;;;;;;;;2040292;29;20210;-89
2023/05/15 02:45:27;;;;;;;15.65;12.90;;;;;;;;;;2031750;29;20083;-90
2023/05/15 02:46:29;;;;;;;18.60;13.55;;;;;;;;;;2031375;29;20055;-90
2023/05/15 02:47:31;;;;;;;14.55;11.48;;;;;;;;;;2031753;29;20048;-89
2023/05/15 02:48:33;;;;;;;14.90;12.32;;;;;;;;;;2031762;29;20496;-88
2023/05/15 02:49:34;;;;;;;16.02;12.85;;;;;;;;;;2023775;29;20024;-89
2023/05/15 02:50:35;;;;;;;15.23;12.30;;;;;;;;;;2023720;29;20063;-89
2023/05/15 02:51:35;;;;;;;16.15;12.77;;;;;;;;;;2031605;29;20055;-88
2023/05/15 02:52:36;;;;;;;17.95;12.48;;;;;;;;;;2034312;29;20103;-87
2023/05/15 02:53:40;;;;;;;15.05;12.32;;;;;;;;;;2033672;29;20040;-88
2023/05/15 02:54:41;;;;;;;17.85;12.73;;;;;;;;;;2031776;29;20091;-89
2023/05/15 02:55:41;;;;;;;15.70;12.50;;;;;;;;;;2031714;29;20064;-87
2023/05/15 02:56:42;;;;;;;16.63;11.68;;;;;;;;;;2031959;29;20468;-88
2023/05/15 02:57:42;;;;;;;17.95;12.95;;;;;;;;;;2031713;29;20030;-86
2023/05/15 02:58:42;;;;;;;15.85;12.40;;;;;;;;;;2024082;29;20036;-87
2023/05/15 02:59:51;;;;;;;15.30;13.13;;;;;;;;;;1924519;29;10206207;-87
2023/05/15 03:00:52;;;;;;;15.70;12.82;;;;;;;;;;2031638;29;20305;-88
2023/05/15 03:01:52;;;;;;;17.63;13.23;;;;;;;;;;2031851;29;20028;-87
2023/05/15 03:02:52;;;;;;;16.73;13.55;;;;;;;;;;2031750;29;20115;-89
2023/05/15 03:03:53;;;;;;;17.98;14.13;;;;;;;;;;2039994;29;20027;-88
2023/05/15 03:04:53;;;;;;;16.25;13.23;;;;;;;;;;2031476;29;20031;-88
2023/05/15 03:05:54;;;;;;;17.92;13.75;;;;;;;;;;2023493;29;20743;-88
2023/05/15 03:06:54;;;;;;;15.70;13.35;;;;;;;;;;2031357;29;20023;-88
2023/05/15 03:07:56;;;;;;;17.13;13.23;;;;;;;;;;2039920;29;20141;-88
2023/05/15 03:08:56;;;;;;;17.05;13.68;;;;;;;;;;2039753;29;20346;-88
2023/05/15 03:09:57;;;;;;;15.90;13.30;;;;;;;;;;2031501;29;20115;-88
2023/05/15 03:10:57;;;;;;;15.43;12.60;;;;;;;;;;2023682;29;20020;-88
2023/05/15 03:11:57;;;;;;;18.30;13.10;;;;;;;;;;2031246;29;20528;-88
2023/05/15 03:12:58;;;;;;;15.93;12.43;;;;;;;;;;2031000;29;20020;-88
2023/05/15 03:14:01;;;;;;;16.25;13.23;;;;;;;;;;2031546;29;20500;-88
2023/05/15 03:15:04;;;;;;;15.60;12.65;;;;;;;;;;2039792;29;20397;-88
2023/05/15 03:16:05;;;;;;;16.73;12.43;;;;;;;;;;2040059;29;20035;-88
2023/05/15 03:17:05;;;;;;;16.23;12.85;;;;;;;;;;2031420;29;20032;-88
2023/05/15 03:18:05;;;;;;;16.17;13.13;;;;;;;;;;2023442;29;20497;-88
2023/05/15 03:19:06;;;;;;;17.10;12.50;;;;;;;;;;2031579;29;20142;-88
2023/05/15 03:20:07;;;;;;;14.30;12.80;;;;;;;;;;2039727;29;20027;-88
2023/05/15 03:21:08;;;;;;;17.33;12.27;;;;;;;;;;2039960;29;20051;-87
2023/05/15 03:22:08;;;;;;;15.63;12.10;;;;;;;;;;2031292;29;20028;-88
2023/05/15 03:23:09;;;;;;;15.23;12.23;;;;;;;;;;2031409;29;20462;-88
2023/05/15 03:24:09;;;;;;;14.60;12.10;;;;;;;;;;2039968;29;20042;-88
2023/05/15 03:25:10;;;;;;;16.65;12.02;;;;;;;;;;2031407;29;20504;-88
2023/05/15 03:26:10;;;;;;;15.00;12.50;;;;;;;;;;2031386;29;20036;-87
2023/05/15 03:27:11;;;;;;;25.65;13.00;;;;;;;;;;2039890;29;20496;-87
2023/05/15 03:28:11;;;;;;;18.20;12.13;;;;;;;;;;2039919;29;20023;-85
2023/05/15 03:29:12;;;;;;;15.95;12.07;;;;;;;;;;2040216;29;20031;-87
2023/05/15 03:30:13;;;;;;;13.98;12.13;;;;;;;;;;2039995;29;20110;-88
2023/05/15 03:31:13;;;;;;;13.48;11.55;;;;;;;;;;2031290;29;20040;-88
2023/05/15 03:32:13;;;;;;;15.07;12.50;;;;;;;;;;2023452;29;20034;-87
2023/05/15 03:33:14;;;;;;;16.10;12.50;;;;;;;;;;2024621;29;20104;-88
2023/05/15 03:34:14;;;;;;;16.70;12.13;;;;;;;;;;2031483;29;20051;-88
2023/05/15 03:35:15;;;;;;;15.80;12.23;;;;;;;;;;2031393;29;20036;-87
2023/05/15 03:36:15;;;;;;;17.42;12.90;;;;;;;;;;2023408;29;20039;-87
2023/05/15 03:37:16;;;;;;;15.25;13.07;;;;;;;;;;2031307;29;20067;-88
2023/05/15 03:38:16;;;;;;;17.70;12.93;;;;;;;;;;2039643;29;20530;-89
2023/05/15 03:39:16;;;;;;;17.40;13.43;;;;;;;;;;2039917;29;20058;-89
2023/05/15 03:40:17;;;;;;;19.33;12.48;;;;;;;;;;2031249;29;20483;-87
2023/05/15 03:41:17;;;;;;;19.98;14.38;;;;;;;;;;2031354;29;20028;-88
2023/05/15 03:42:22;;;;;;;20.92;13.65;;;;;;;;;;2039214;29;20342;-86
2023/05/15 03:43:23;;;;;;;16.48;12.55;;;;;;;;;;2031652;29;20497;-87
2023/05/15 03:44:23;;;;;;;16.30;13.10;;;;;;;;;;2033439;29;20024;-87
2023/05/15 03:45:24;;;;;;;15.07;12.43;;;;;;;;;;2035862;29;20468;-88
2023/05/15 03:46:24;;;;;;;17.40;13.00;;;;;;;;;;2031772;29;20187;-88
2023/05/15 03:47:24;;;;;;;16.48;13.05;;;;;;;;;;1679037;29;10399981;-89
2023/05/15 03:48:25;;;;;;;17.20;13.52;;;;;;;;;;2031609;29;20083;-89
2023/05/15 03:49:25;;;;;;;16.73;12.73;;;;;;;;;;2031599;29;20024;-89
2023/05/15 03:50:26;;;;;;;15.70;13.60;;;;;;;;;;2040057;29;20047;-88
2023/05/15 03:51:27;;;;;;;15.48;12.93;;;;;;;;;;2039856;29;20090;-89
2023/05/15 03:52:28;;;;;;;18.27;13.38;;;;;;;;;;2031182;29;20091;-89
2023/05/15 03:53:29;;;;;;;16.33;13.05;;;;;;;;;;2022077;29;20561;-89
2023/05/15 03:54:29;;;;;;;16.70;13.23;;;;;;;;;;2039859;29;20105;-88
2023/05/15 03:55:30;;;;;;;17.60;13.75;;;;;;;;;;1690596;29;10262070;-88
2023/05/15 03:56:31;;;;;;;17.80;13.43;;;;;;;;;;2039417;29;20042;-86
2023/05/15 03:57:32;;;;;;;16.33;13.05;;;;;;;;;;2038936;29;20040;-88
2023/05/15 03:58:32;;;;;;;15.88;13.13;;;;;;;;;;2039036;29;20031;-88
2023/05/15 03:59:33;;;;;;;14.90;12.50;;;;;;;;;;2039207;29;20095;-88
2023/05/15 04:00:33;;;;;;;18.10;14.10;;;;;;;;;;2039168;29;20340;-88
2023/05/15 04:01:34;;;;;;;18.10;13.90;;;;;;;;;;2039059;29;20015;-88
2023/05/15 04:02:34;;;;;;;17.67;14.27;;;;;;;;;;2031354;29;20032;-88
2023/05/15 04:03:34;;;;;;;20.70;15.75;;;;;;;;;;2039220;29;20054;-88
2023/05/15 04:04:36;;;;;;;18.40;14.40;;;;;;;;;;2038944;29;20039;-88
2023/05/15 04:05:36;;;;;;;25.27;17.58;;;;;;;;;;2038977;29;20111;-88
2023/05/15 04:06:37;;;;;;;19.92;14.18;;;;;;;;;;2038894;29;20024;-87
2023/05/15 04:07:37;;;;;;;17.05;14.30;;;;;;;;;;2038793;29;20038;-87
2023/05/15 04:08:38;;;;;;;16.90;13.98;;;;;;;;;;2038898;29;20032;-87
2023/05/15 04:09:38;;;;;;;18.23;14.07;;;;;;;;;;2031138;29;20028;-87
2023/05/15 04:10:39;;;;;;;18.77;13.55;;;;;;;;;;2038992;29;20050;-88
2023/05/15 04:11:39;;;;;;;17.60;13.50;;;;;;;;;;2039107;29;20022;-88
2023/05/15 04:12:39;;;;;;;18.73;14.35;;;;;;;;;;2038908;29;20028;-88
2023/05/15 04:13:40;;;;;;;19.80;14.15;;;;;;;;;;2039754;29;20520;-88
2023/05/15 04:14:40;;;;;;;17.63;13.85;;;;;;;;;;2038895;29;20027;-87
2023/05/15 04:15:41;;;;;;;22.02;16.38;;;;;;;;;;2031196;29;20016;-88
2023/05/15 04:16:41;;;;;;;24.33;17.42;;;;;;;;;;2038978;29;20656;-87
2023/05/15 04:17:43;;;;;;;20.33;14.05;;;;;;;;;;2039620;29;20057;-88
2023/05/15 04:18:43;;;;;;;21.80;14.80;;;;;;;;;;2038813;29;20030;-88
2023/05/15 04:19:46;;;;;;;17.75;13.70;;;;;;;;;;2039135;29;20023;-88
2023/05/15 04:20:47;;;;;;;19.13;14.10;;;;;;;;;;2039614;29;20185;-88
2023/05/15 04:21:47;;;;;;;21.95;15.23;;;;;;;;;;2039600;29;20023;-87
2023/05/15 04:22:48;;;;;;;17.33;14.15;;;;;;;;;;2039560;29;20020;-88
2023/05/15 04:23:49;;;;;;;19.10;15.40;;;;;;;;;;2038967;29;20022;-89
2023/05/15 04:24:49;;;;;;;21.23;15.27;;;;;;;;;;2030891;29;20491;-89
2023/05/15 04:25:52;;;;;;;19.95;14.90;;;;;;;;;;2030729;29;20115;-88
2023/05/15 04:26:52;;;;;;;21.63;16.13;;;;;;;;;;2037068;29;20079;-90
2023/05/15 04:27:53;;;;;;;21.67;15.25;;;;;;;;;;2039182;29;20023;-87
2023/05/15 04:28:55;;;;;;;21.02;15.35;;;;;;;;;;2039200;29;20020;-88
2023/05/15 04:29:56;;;;;;;20.30;15.73;;;;;;;;;;2039489;29;20032;-89
2023/05/15 04:30:58;;;;;;;22.77;15.68;;;;;;;;;;2038152;29;20024;-89
2023/05/15 04:31:58;;;;;;;21.95;16.17;;;;;;;;;;2030513;29;20127;-88
2023/05/15 04:32:59;;;;;;;22.67;16.38;;;;;;;;;;2038563;29;20047;-88
2023/05/15 04:33:59;;;;;;;26.70;17.25;;;;;;;;;;2038815;29;20042;-88
2023/05/15 04:35:00;;;;;;;20.08;16.65;;;;;;;;;;2038893;29;20063;-88
2023/05/15 04:36:02;;;;;;;23.67;16.65;;;;;;;;;;2046215;28;20100;-88
2023/05/15 04:37:03;;;;;;;19.42;15.90;;;;;;;;;;2049676;28;20036;-88
2023/05/15 04:38:03;;;;;;;20.73;14.55;;;;;;;;;;2050138;28;20076;-87
2023/05/15 04:39:04;;;;;;;21.65;15.90;;;;;;;;;;2049085;28;20490;-88
2023/05/15 04:40:06;;;;;;;22.48;16.02;;;;;;;;;;2048919;29;20079;-87
2023/05/15 04:41:07;;;;;;;18.85;15.88;;;;;;;;;;1693533;29;10264465;-88
2023/05/15 04:42:07;;;;;;;19.73;15.40;;;;;;;;;;2038873;29;20051;-89
2023/05/15 04:43:07;;;;;;;20.20;16.13;;;;;;;;;;2038458;29;20066;-88
2023/05/15 04:44:08;;;;;;;18.17;14.48;;;;;;;;;;2038047;29;20107;-88
2023/05/15 04:45:09;;;;;;;20.83;14.57;;;;;;;;;;2038097;29;20311;-88
2023/05/15 04:46:09;;;;;;;20.27;14.35;;;;;;;;;;2038140;29;20028;-88
2023/05/15 04:47:10;;;;;;;19.20;13.75;;;;;;;;;;2030439;29;20552;-87
2023/05/15 04:48:10;;;;;;;19.52;14.93;;;;;;;;;;2038433;29;20190;-88
2023/05/15 04:49:11;;;;;;;21.00;14.10;;;;;;;;;;2039037;29;20024;-88
2023/05/15 04:50:11;;;;;;;16.23;14.13;;;;;;;;;;2038609;29;20054;-87
2023/05/15 04:51:12;;;;;;;16.98;12.80;;;;;;;;;;2030719;29;20036;-87
2023/05/15 04:52:12;;;;;;;16.58;13.15;;;;;;;;;;2030407;29;20027;-87
2023/05/15 04:53:20;;;;;;;21.13;14.00;;;;;;;;;;1924052;29;10397762;-87
2023/05/15 04:54:20;;;;;;;17.63;13.40;;;;;;;;;;2037392;29;20250;-88
2023/05/15 04:55:21;;;;;;;15.82;13.45;;;;;;;;;;2048688;28;20015;-87
2023/05/15 04:56:21;;;;;;;15.20;13.00;;;;;;;;;;2048845;28;20071;-87
2023/05/15 04:57:22;;;;;;;16.45;12.88;;;;;;;;;;2047327;29;20035;-87
2023/05/15 04:58:25;;;;;;;14.77;12.10;;;;;;;;;;2047226;29;20016;-87
2023/05/15 04:59:27;;;;;;;18.27;12.73;;;;;;;;;;2043409;29;20035;-87
2023/05/15 05:00:28;;;;;;;17.08;13.20;;;;;;;;;;2039592;29;20020;-87
2023/05/15 05:01:30;;;;;;;16.63;13.05;;;;;;;;;;2040925;29;20053;-87
2023/05/15 05:02:30;;;;;;;16.75;12.68;;;;;;;;;;2041360;29;20695;-87
2023/05/15 05:03:30;;;;;;;14.55;12.65;;;;;;;;;;2041147;29;20024;-87
2023/05/15 05:04:51;;;;;;;17.63;12.80;;;;;;;;;;2041532;29;20439;-89
2023/05/15 05:05:51;;;;;;;15.70;12.95;;;;;;;;;;2040818;29;20051;-88
2023/05/15 05:06:51;;;;;;;18.85;12.98;;;;;;;;;;2041187;29;20022;-87
2023/05/15 05:07:52;;;;;;;17.75;12.52;;;;;;;;;;2041361;29;20047;-87
2023/05/15 05:08:52;;;;;;;18.17;13.23;;;;;;;;;;2040907;29;20103;-88
2023/05/15 05:09:53;;;;;;;17.17;13.00;;;;;;;;;;2040791;29;20026;-87
2023/05/15 05:10:56;;;;;;;16.65;12.40;;;;;;;;;;2043903;29;20032;-88
2023/05/15 05:12:01;;;;;;;17.25;12.90;;;;;;;;;;2040463;29;20102;-88
2023/05/15 05:13:01;;;;;;;16.67;13.18;;;;;;;;;;2039939;29;20035;-88
2023/05/15 05:14:02;;;;;;;15.88;13.18;;;;;;;;;;2032270;29;20032;-88
2023/05/15 05:15:03;;;;;;;18.45;13.88;;;;;;;;;;2040244;29;20039;-88
2023/05/15 05:16:04;;;;;;;17.08;13.45;;;;;;;;;;2032252;29;20106;-88
2023/05/15 05:17:04;;;;;;;16.83;12.57;;;;;;;;;;2040568;29;20453;-88
2023/05/15 05:18:06;;;;;;;17.95;12.80;;;;;;;;;;2041169;29;20110;-88
2023/05/15 05:19:07;;;;;;;15.77;12.27;;;;;;;;;;2040724;29;20656;-88
2023/05/15 05:20:08;;;;;;;17.83;13.13;;;;;;;;;;2040747;29;20031;-88
2023/05/15 05:21:08;;;;;;;16.48;12.27;;;;;;;;;;2039887;29;20024;-88
2023/05/15 05:22:10;;;;;;;19.35;13.32;;;;;;;;;;2040265;29;20038;-88
2023/05/15 05:23:13;;;;;;;17.30;13.18;;;;;;;;;;2039802;29;20415;-88
2023/05/15 05:24:13;;;;;;;16.25;12.52;;;;;;;;;;2032802;29;20118;-89
2023/05/15 05:25:17;;;;;;;17.30;14.18;;;;;;;;;;2040347;29;20023;-88
2023/05/15 05:26:17;;;;;;;20.27;14.07;;;;;;;;;;2040372;29;20036;-88
2023/05/15 05:27:18;;;;;;;17.23;13.55;;;;;;;;;;2032901;29;20032;-88
2023/05/15 05:28:21;;;;;;;19.80;14.45;;;;;;;;;;2042863;29;20058;-88
2023/05/15 05:29:21;;;;;;;18.55;14.27;;;;;;;;;;2044728;29;20522;-87
2023/05/15 05:30:22;;;;;;;18.73;14.60;;;;;;;;;;2041816;29;20031;-87
2023/05/15 05:31:22;;;;;;;19.92;14.93;;;;;;;;;;2040833;29;20082;-88
2023/05/15 05:32:26;;;;;;;18.67;13.75;;;;;;;;;;2031999;29;20032;-88
2023/05/15 05:33:26;;;;;;;19.30;14.43;;;;;;;;;;2032623;29;20024;-87
2023/05/15 05:34:27;;;;;;;20.92;15.18;;;;;;;;;;2040503;29;20028;-88
2023/05/15 05:35:28;;;;;;;21.95;16.15;;;;;;;;;;2041073;29;20058;-87
2023/05/15 05:36:29;;;;;;;19.30;15.20;;;;;;;;;;2040921;29;20038;-87
2023/05/15 05:37:29;;;;;;;19.83;14.68;;;;;;;;;;2040045;29;20520;-88
2023/05/15 05:38:30;;;;;;;19.58;15.05;;;;;;;;;;2040629;29;20051;-87
2023/05/15 05:39:30;;;;;;;19.48;14.57;;;;;;;;;;2040205;29;20074;-88
2023/05/15 05:40:31;;;;;;;21.95;15.70;;;;;;;;;;2040171;29;20028;-87
2023/05/15 05:41:31;;;;;;;21.58;16.70;;;;;;;;;;2040842;29;20079;-87
2023/05/15 05:42:32;;;;;;;20.10;16.10;;;;;;;;;;2040140;29;20035;-87
2023/05/15 05:43:32;;;;;;;19.20;15.27;;;;;;;;;;2032392;29;20056;-87
2023/05/15 05:44:33;;;;;;;22.80;16.70;;;;;;;;;;2032308;29;20448;-87
2023/05/15 05:45:33;;;;;;;21.65;16.70;;;;;;;;;;2040067;29;20023;-88
2023/05/15 05:46:34;;;;;;;23.17;16.58;;;;;;;;;;2040665;29;20035;-87
2023/05/15 05:47:34;;;;;;;20.42;16.40;;;;;;;;;;2039839;29;20482;-87
2023/05/15 05:48:35;;;;;;;21.15;16.30;;;;;;;;;;2040088;29;20035;-88
2023/05/15 05:49:35;;;;;;;22.33;16.70;;;;;;;;;;2040473;29;20032;-87
2023/05/15 05:51:00;;;;;;;20.40;15.77;;;;;;;;;;1684089;29;10448973;-87
2023/05/15 05:52:07;;;;;;;21.35;15.90;;;;;;;;;;2039801;29;20450;-87
2023/05/15 05:53:19;;;;;;;23.23;17.20;;;;;;;;;;2032252;29;20115;-88
2023/05/15 05:54:20;;;;;;;22.15;16.50;;;;;;;;;;2039548;29;20059;-87
2023/05/15 05:55:20;;;;;;;22.48;16.23;;;;;;;;;;2031368;29;20495;-86
2023/05/15 05:56:21;;;;;;;20.58;15.15;;;;;;;;;;2031321;29;20036;-85
2023/05/15 05:57:21;;;;;;;18.25;14.77;;;;;;;;;;2030960;29;20285;-86
2023/05/15 05:58:22;;;;;;;22.42;14.77;;;;;;;;;;2039674;29;20043;-86
2023/05/15 05:59:22;;;;;;;21.40;15.15;;;;;;;;;;2040445;29;20090;-85
2023/05/15 06:00:23;;;;;;;22.98;15.10;;;;;;;;;;2039616;29;20611;-86
2023/05/15 06:01:24;;;;;;;18.60;14.50;;;;;;;;;;2039518;29;20074;-86